Time;durP1;ratioP1;P1;durP2;ratioP2;P2;SDS_P1;SDS_P2;PMS_P1;PMS_P2;Temp;Humidity;BMP_temperature;BMP_pressure;BME280_temperature;BME280_humidity;BME280_pressure;Samples;Min_cycle;Max_cycle;Signal;HPM_P1;HPM_P2
2022/02/14 00:01:41;;;;;;;0.25;0.22;;;;;;;;;;4957044;28;20053;-87
2022/02/14 00:04:07;;;;;;;0.10;0.10;;;;;;;;;;4989270;28;20384;-87
2022/02/14 00:06:33;;;;;;;0.10;0.10;;;;;;;;;;4941157;28;20418;-87
2022/02/14 00:08:59;;;;;;;0.10;0.10;;;;;;;;;;4941033;28;20046;-87
2022/02/14 00:11:25;;;;;;;0.10;0.10;;;;;;;;;;4989112;28;20048;-87
2022/02/14 00:13:51;;;;;;;0.10;0.10;;;;;;;;;;4956979;28;20068;-87
2022/02/14 00:16:17;;;;;;;0.20;0.20;;;;;;;;;;4957017;28;20399;-87
2022/02/14 00:18:43;;;;;;;0.10;0.10;;;;;;;;;;4956872;28;20046;-87
2022/02/14 00:21:09;;;;;;;0.10;0.10;;;;;;;;;;4988761;28;20498;-86
2022/02/14 00:23:35;;;;;;;0.10;0.10;;;;;;;;;;4956687;28;20454;-87
2022/02/14 00:26:01;;;;;;;0.10;0.10;;;;;;;;;;4956646;28;20046;-87
2022/02/14 00:28:27;;;;;;;0.10;0.10;;;;;;;;;;4956561;28;20088;-87
2022/02/14 00:30:53;;;;;;;0.60;0.38;;;;;;;;;;4940599;28;20395;-86
2022/02/14 00:33:19;;;;;;;0.30;0.30;;;;;;;;;;4956405;28;20047;-87
2022/02/14 00:35:47;;;;;;;0.30;0.30;;;;;;;;;;4956612;28;20053;-87
2022/02/14 00:38:13;;;;;;;0.10;0.10;;;;;;;;;;4956636;28;20456;-87
2022/02/14 00:40:39;;;;;;;0.10;0.10;;;;;;;;;;4956466;28;20089;-87
2022/02/14 00:43:05;;;;;;;0.10;0.10;;;;;;;;;;4956321;28;20131;-86
2022/02/14 00:45:31;;;;;;;0.10;0.10;;;;;;;;;;4940402;28;20070;-87
2022/02/14 00:47:57;;;;;;;0.10;0.10;;;;;;;;;;4956220;28;20047;-86
2022/02/14 00:50:23;;;;;;;0.10;0.10;;;;;;;;;;4940046;28;20396;-86
2022/02/14 00:52:48;;;;;;;0.10;0.10;;;;;;;;;;4956118;28;20055;-87
2022/02/14 00:55:15;;;;;;;0.22;0.22;;;;;;;;;;4940506;28;20056;-86
2022/02/14 00:57:41;;;;;;;2.88;0.17;;;;;;;;;;4956419;28;20130;-86
2022/02/14 01:00:09;;;;;;;0.10;0.10;;;;;;;;;;4988347;28;20049;-86
2022/02/14 01:02:35;;;;;;;0.15;0.15;;;;;;;;;;4956100;28;20046;-87
2022/02/14 01:05:01;;;;;;;0.10;0.10;;;;;;;;;;4955985;28;20046;-87
2022/02/14 01:07:27;;;;;;;0.10;0.10;;;;;;;;;;4955916;28;20038;-87
2022/02/14 01:09:53;;;;;;;0.10;0.10;;;;;;;;;;4956005;28;20101;-87
2022/02/14 01:12:19;;;;;;;0.10;0.10;;;;;;;;;;4987901;28;20047;-88
2022/02/14 01:14:45;;;;;;;0.10;0.10;;;;;;;;;;4939879;28;20038;-87
2022/02/14 01:17:11;;;;;;;0.13;0.13;;;;;;;;;;4955818;28;20494;-87
2022/02/14 01:19:37;;;;;;;0.10;0.10;;;;;;;;;;4939885;28;20130;-87
2022/02/14 01:22:03;;;;;;;0.38;0.38;;;;;;;;;;4939604;28;20043;-87
2022/02/14 01:24:29;;;;;;;0.20;0.20;;;;;;;;;;4955643;28;20046;-88
2022/02/14 01:26:56;;;;;;;0.10;0.10;;;;;;;;;;4955472;28;20038;-88
2022/02/14 01:29:22;;;;;;;0.10;0.10;;;;;;;;;;4939821;28;20043;-88
2022/02/14 01:31:48;;;;;;;0.45;0.45;;;;;;;;;;4955415;28;20093;-87
2022/02/14 01:34:14;;;;;;;0.10;0.10;;;;;;;;;;4955485;28;20094;-87
2022/02/14 01:36:40;;;;;;;0.10;0.10;;;;;;;;;;4939770;28;20491;-87
2022/02/14 01:39:08;;;;;;;0.17;0.17;;;;;;;;;;4955747;28;20035;-87
2022/02/14 01:41:34;;;;;;;0.10;0.10;;;;;;;;;;4939701;28;20050;-86
2022/02/14 01:44:00;;;;;;;0.10;0.10;;;;;;;;;;4939586;28;20035;-86
2022/02/14 01:46:25;;;;;;;0.10;0.10;;;;;;;;;;4955731;28;20038;-86
2022/02/14 01:48:52;;;;;;;0.20;0.20;;;;;;;;;;4987683;28;20050;-86
2022/02/14 01:51:18;;;;;;;0.10;0.10;;;;;;;;;;4955563;28;20046;-86
2022/02/14 01:53:44;;;;;;;0.10;0.10;;;;;;;;;;4955437;28;20117;-86
2022/02/14 01:56:12;;;;;;;0.60;0.20;;;;;;;;;;4971851;28;20050;-86
2022/02/14 01:58:38;;;;;;;0.10;0.10;;;;;;;;;;4955479;28;20051;-86
2022/02/14 02:01:04;;;;;;;0.10;0.10;;;;;;;;;;4955407;28;20487;-86
2022/02/14 02:03:30;;;;;;;0.10;0.10;;;;;;;;;;4991007;28;20043;-85
2022/02/14 02:05:56;;;;;;;0.10;0.10;;;;;;;;;;4943131;28;20140;-85
2022/02/14 02:08:22;;;;;;;0.10;0.10;;;;;;;;;;4959362;28;20121;-85
2022/02/14 02:10:48;;;;;;;0.10;0.10;;;;;;;;;;4958861;28;20618;-84
2022/02/14 02:13:16;;;;;;;0.17;0.17;;;;;;;;;;4991222;28;20046;-85
2022/02/14 02:15:42;;;;;;;0.10;0.10;;;;;;;;;;4991321;28;20042;-84
2022/02/14 02:18:07;;;;;;;0.10;0.10;;;;;;;;;;4943193;28;20109;-85
2022/02/14 02:20:34;;;;;;;0.10;0.10;;;;;;;;;;4958929;28;20038;-84
2022/02/14 02:23:00;;;;;;;0.10;0.10;;;;;;;;;;4990899;28;20046;-85
2022/02/14 02:25:25;;;;;;;0.10;0.10;;;;;;;;;;4991067;28;20116;-84
2022/02/14 02:27:51;;;;;;;0.10;0.10;;;;;;;;;;4958603;28;20501;-84
2022/02/14 02:30:18;;;;;;;0.10;0.10;;;;;;;;;;4958503;28;20469;-84
2022/02/14 02:32:44;;;;;;;0.10;0.10;;;;;;;;;;4990857;28;20114;-85
2022/02/14 02:35:10;;;;;;;0.10;0.10;;;;;;;;;;4991171;28;20345;-86
2022/02/14 02:37:36;;;;;;;0.10;0.10;;;;;;;;;;4990786;28;20529;-86
2022/02/14 02:40:03;;;;;;;0.10;0.10;;;;;;;;;;4942589;28;20049;-85
2022/02/14 02:42:29;;;;;;;0.10;0.10;;;;;;;;;;4958343;28;20234;-85
2022/02/14 02:44:55;;;;;;;0.10;0.10;;;;;;;;;;4990614;28;20107;-85
2022/02/14 02:47:21;;;;;;;0.50;0.50;;;;;;;;;;4958554;28;20041;-85
2022/02/14 02:49:47;;;;;;;0.10;0.10;;;;;;;;;;4958452;28;20101;-86
2022/02/14 02:52:15;;;;;;;0.10;0.10;;;;;;;;;;4942186;28;20039;-87
2022/02/14 02:54:41;;;;;;;0.10;0.10;;;;;;;;;;4958720;28;20401;-86
2022/02/14 02:57:07;;;;;;;0.10;0.10;;;;;;;;;;4942317;28;20129;-86
2022/02/14 02:59:35;;;;;;;0.10;0.10;;;;;;;;;;4990373;28;20046;-86
2022/02/14 03:02:02;;;;;;;0.10;0.10;;;;;;;;;;4958444;28;20049;-85
2022/02/14 03:04:28;;;;;;;0.10;0.10;;;;;;;;;;4990458;28;20359;-85
2022/02/14 03:06:54;;;;;;;0.10;0.10;;;;;;;;;;4990307;28;20038;-86
2022/02/14 03:09:20;;;;;;;0.10;0.10;;;;;;;;;;4990231;28;20043;-87
2022/02/14 03:11:46;;;;;;;0.10;0.10;;;;;;;;;;4942123;28;20039;-87
2022/02/14 03:14:12;;;;;;;0.10;0.10;;;;;;;;;;4956940;28;20498;-86
2022/02/14 03:16:38;;;;;;;0.28;0.28;;;;;;;;;;4957782;28;20487;-86
2022/02/14 03:19:04;;;;;;;0.10;0.10;;;;;;;;;;4941961;28;20082;-87
2022/02/14 03:21:30;;;;;;;0.10;0.10;;;;;;;;;;4942187;28;20479;-87
2022/02/14 03:23:57;;;;;;;0.10;0.10;;;;;;;;;;4957665;28;20085;-87
2022/02/14 03:26:22;;;;;;;0.10;0.10;;;;;;;;;;4957717;28;20041;-86
2022/02/14 03:28:49;;;;;;;0.10;0.10;;;;;;;;;;4957797;28;20501;-86
2022/02/14 03:31:15;;;;;;;0.10;0.10;;;;;;;;;;4957759;28;20042;-86
2022/02/14 03:33:43;;;;;;;0.10;0.10;;;;;;;;;;4989758;28;20049;-86
2022/02/14 03:36:08;;;;;;;0.10;0.10;;;;;;;;;;4957838;28;20043;-86
2022/02/14 03:38:35;;;;;;;0.10;0.10;;;;;;;;;;4957543;28;20061;-86
2022/02/14 03:41:01;;;;;;;0.10;0.10;;;;;;;;;;4957363;28;20053;-86
2022/02/14 03:43:27;;;;;;;0.10;0.10;;;;;;;;;;4941422;28;20051;-86
2022/02/14 03:45:53;;;;;;;0.10;0.10;;;;;;;;;;4989894;28;20113;-86
2022/02/14 03:48:23;;;;;;;0.20;0.20;;;;;;;;;;4957805;28;20126;-87
2022/02/14 03:50:49;;;;;;;0.10;0.10;;;;;;;;;;4942176;28;20046;-86
2022/02/14 03:53:15;;;;;;;0.10;0.10;;;;;;;;;;4957006;28;20146;-86
2022/02/14 03:55:41;;;;;;;0.20;0.20;;;;;;;;;;4957052;28;20086;-86
2022/02/14 03:58:07;;;;;;;0.00;0.00;;;;;;;;;;4957543;28;20109;-86
2022/02/14 04:00:33;;;;;;;0.20;0.20;;;;;;;;;;4989296;28;20486;-85
2022/02/14 04:02:59;;;;;;;0.10;0.10;;;;;;;;;;4956943;28;20042;-86
2022/02/14 04:05:25;;;;;;;0.10;0.10;;;;;;;;;;4989118;28;20481;-86
2022/02/14 04:07:51;;;;;;;0.10;0.10;;;;;;;;;;4941161;28;20050;-87
2022/02/14 04:10:17;;;;;;;0.10;0.10;;;;;;;;;;4989029;28;20042;-85
2022/02/14 04:12:43;;;;;;;0.38;0.35;;;;;;;;;;4956853;28;20058;-85
2022/02/14 04:15:11;;;;;;;0.10;0.10;;;;;;;;;;4940871;28;20038;-86
2022/02/14 04:17:37;;;;;;;0.20;0.20;;;;;;;;;;4941093;28;20039;-85
2022/02/14 04:20:03;;;;;;;0.10;0.10;;;;;;;;;;4956690;28;20045;-85
2022/02/14 04:22:29;;;;;;;0.10;0.10;;;;;;;;;;4940606;28;20094;-86
2022/02/14 04:24:55;;;;;;;0.10;0.10;;;;;;;;;;4956236;28;20487;-86
2022/02/14 04:27:21;;;;;;;0.10;0.10;;;;;;;;;;4956757;28;20070;-85
2022/02/14 04:29:47;;;;;;;0.10;0.10;;;;;;;;;;4956976;28;20136;-86
2022/02/14 04:32:13;;;;;;;0.10;0.10;;;;;;;;;;4988697;28;20505;-85
2022/02/14 04:34:39;;;;;;;0.10;0.10;;;;;;;;;;4956427;28;20460;-85
2022/02/14 04:37:05;;;;;;;0.10;0.10;;;;;;;;;;4988694;28;20336;-86
2022/02/14 04:39:31;;;;;;;0.10;0.10;;;;;;;;;;4956445;28;20042;-86
2022/02/14 04:41:57;;;;;;;1.52;0.43;;;;;;;;;;4956361;28;20097;-86
2022/02/14 04:44:23;;;;;;;0.10;0.10;;;;;;;;;;4956819;28;20418;-85
2022/02/14 04:46:49;;;;;;;0.10;0.10;;;;;;;;;;4956360;28;20046;-86
2022/02/14 04:49:15;;;;;;;0.10;0.10;;;;;;;;;;4988715;28;20727;-86
2022/02/14 04:51:41;;;;;;;0.10;0.10;;;;;;;;;;4956200;28;20046;-86
2022/02/14 04:54:07;;;;;;;0.10;0.10;;;;;;;;;;4956099;28;20058;-85
2022/02/14 04:56:33;;;;;;;4.57;0.47;;;;;;;;;;4956062;28;20336;-85
2022/02/14 04:58:59;;;;;;;0.10;0.10;;;;;;;;;;4956080;28;20042;-85
2022/02/14 05:01:25;;;;;;;0.10;0.10;;;;;;;;;;4940164;28;20242;-85
2022/02/14 05:03:51;;;;;;;0.10;0.10;;;;;;;;;;4988295;28;20196;-86
2022/02/14 05:06:17;;;;;;;0.22;0.10;;;;;;;;;;4956080;28;20049;-86
2022/02/14 05:08:43;;;;;;;0.10;0.10;;;;;;;;;;4939941;28;20042;-86
2022/02/14 05:11:10;;;;;;;0.20;0.20;;;;;;;;;;4956310;28;20406;-86
2022/02/14 05:13:39;;;;;;;0.10;0.10;;;;;;;;;;4956099;28;20047;-86
2022/02/14 05:16:06;;;;;;;0.15;0.15;;;;;;;;;;4955725;28;20089;-85
2022/02/14 05:18:32;;;;;;;0.10;0.10;;;;;;;;;;4955910;28;20134;-84
2022/02/14 05:20:58;;;;;;;0.20;0.20;;;;;;;;;;4955908;28;20129;-86
2022/02/14 05:23:23;;;;;;;0.10;0.10;;;;;;;;;;4955779;28;20451;-86
2022/02/14 05:25:50;;;;;;;0.20;0.20;;;;;;;;;;4939892;28;20045;-85
2022/02/14 05:28:16;;;;;;;0.10;0.10;;;;;;;;;;4988122;28;20039;-86
2022/02/14 05:30:42;;;;;;;0.03;0.03;;;;;;;;;;4939895;28;20137;-86
2022/02/14 05:33:08;;;;;;;0.47;0.22;;;;;;;;;;4987834;28;20501;-86
2022/02/14 05:35:34;;;;;;;0.10;0.10;;;;;;;;;;4955537;28;20125;-86
2022/02/14 05:38:00;;;;;;;0.10;0.10;;;;;;;;;;4942561;28;20125;-85
2022/02/14 05:40:26;;;;;;;0.20;0.20;;;;;;;;;;4959701;28;20038;-87
2022/02/14 05:42:52;;;;;;;0.10;0.10;;;;;;;;;;4943622;28;20129;-87
2022/02/14 05:45:18;;;;;;;0.10;0.10;;;;;;;;;;4959496;28;20070;-87
2022/02/14 05:47:44;;;;;;;0.10;0.10;;;;;;;;;;4943658;28;20047;-86
2022/02/14 05:50:10;;;;;;;0.10;0.10;;;;;;;;;;4959613;28;20082;-87
2022/02/14 05:52:36;;;;;;;0.10;0.10;;;;;;;;;;4959491;28;20055;-86
2022/02/14 05:55:03;;;;;;;0.10;0.10;;;;;;;;;;4943400;28;20043;-86
2022/02/14 05:57:29;;;;;;;0.10;0.10;;;;;;;;;;4959465;28;20118;-86
2022/02/14 05:59:55;;;;;;;0.10;0.10;;;;;;;;;;4959624;28;20144;-86
2022/02/14 06:02:21;;;;;;;0.10;0.10;;;;;;;;;;4959052;28;20046;-86
2022/02/14 06:04:47;;;;;;;0.10;0.10;;;;;;;;;;4959092;28;20376;-86
2022/02/14 06:07:13;;;;;;;0.32;0.20;;;;;;;;;;4959315;28;20074;-86
2022/02/14 06:09:39;;;;;;;0.10;0.10;;;;;;;;;;4943245;28;20066;-86
2022/02/14 06:12:05;;;;;;;0.15;0.15;;;;;;;;;;4991354;28;20229;-86
2022/02/14 06:14:32;;;;;;;0.10;0.10;;;;;;;;;;4943169;28;20495;-86
2022/02/14 06:16:58;;;;;;;0.30;0.20;;;;;;;;;;4943673;28;20054;-86
2022/02/14 06:19:24;;;;;;;0.10;0.10;;;;;;;;;;4991114;28;20475;-87
2022/02/14 06:21:50;;;;;;;0.10;0.10;;;;;;;;;;4958727;28;20043;-86
2022/02/14 06:24:16;;;;;;;0.10;0.10;;;;;;;;;;4991009;28;20038;-85
2022/02/14 06:26:42;;;;;;;0.10;0.10;;;;;;;;;;4958784;28;20517;-85
2022/02/14 06:29:08;;;;;;;0.10;0.10;;;;;;;;;;4959073;28;20054;-86
2022/02/14 06:31:33;;;;;;;0.10;0.10;;;;;;;;;;4958679;28;20034;-86
2022/02/14 06:33:59;;;;;;;0.20;0.20;;;;;;;;;;4990884;28;20054;-86
2022/02/14 06:36:28;;;;;;;0.17;0.17;;;;;;;;;;4958733;28;20062;-86
2022/02/14 06:38:54;;;;;;;0.15;0.15;;;;;;;;;;4974765;28;20047;-86
2022/02/14 06:41:21;;;;;;;0.10;0.10;;;;;;;;;;4942616;28;20465;-85
2022/02/14 06:43:47;;;;;;;0.10;0.10;;;;;;;;;;4942570;28;20042;-86
2022/02/14 06:46:13;;;;;;;0.10;0.10;;;;;;;;;;4990653;28;20407;-86
2022/02/14 06:48:39;;;;;;;0.10;0.10;;;;;;;;;;4958240;28;20051;-87
2022/02/14 06:51:05;;;;;;;0.10;0.10;;;;;;;;;;4942520;28;20049;-87
2022/02/14 06:53:31;;;;;;;0.10;0.10;;;;;;;;;;4958169;28;20059;-87
2022/02/14 06:55:57;;;;;;;0.10;0.10;;;;;;;;;;4958487;28;20287;-85
2022/02/14 06:58:23;;;;;;;0.10;0.10;;;;;;;;;;4958262;28;20053;-87
2022/02/14 07:00:49;;;;;;;0.10;0.10;;;;;;;;;;4958239;28;20058;-86
2022/02/14 07:03:18;;;;;;;0.10;0.10;;;;;;;;;;4958147;28;20043;-87
2022/02/14 07:05:44;;;;;;;0.30;0.30;;;;;;;;;;4958513;28;20161;-86
2022/02/14 07:08:10;;;;;;;0.10;0.10;;;;;;;;;;4942600;28;20045;-87
2022/02/14 07:10:36;;;;;;;0.45;0.35;;;;;;;;;;4958762;28;20169;-88
2022/02/14 07:13:02;;;;;;;0.10;0.10;;;;;;;;;;4942486;28;20085;-86
2022/02/14 07:15:28;;;;;;;0.10;0.10;;;;;;;;;;4958247;28;20082;-89
2022/02/14 07:17:54;;;;;;;0.10;0.10;;;;;;;;;;4942358;28;20042;-86
2022/02/14 07:20:22;;;;;;;0.10;0.10;;;;;;;;;;4958184;28;20053;-87
2022/02/14 07:22:48;;;;;;;0.10;0.10;;;;;;;;;;4958062;28;20161;-86
2022/02/14 07:25:14;;;;;;;0.10;0.10;;;;;;;;;;4957878;28;20502;-87
2022/02/14 07:27:40;;;;;;;0.13;0.13;;;;;;;;;;4957857;28;20030;-87
2022/02/14 07:30:07;;;;;;;0.10;0.10;;;;;;;;;;4957612;28;20036;-87
2022/02/14 07:32:33;;;;;;;0.10;0.10;;;;;;;;;;4957662;28;20103;-87
2022/02/14 07:34:59;;;;;;;0.10;0.10;;;;;;;;;;4941749;28;20047;-89
2022/02/14 07:37:25;;;;;;;0.10;0.10;;;;;;;;;;4941953;28;20113;-86
2022/02/14 07:39:51;;;;;;;0.10;0.10;;;;;;;;;;4957743;28;20050;-89
2022/02/14 07:42:18;;;;;;;0.10;0.10;;;;;;;;;;4941753;28;20039;-89
2022/02/14 07:44:44;;;;;;;0.30;0.30;;;;;;;;;;4957543;28;20046;-89
2022/02/14 07:47:10;;;;;;;0.10;0.10;;;;;;;;;;4958038;28;20039;-94
2022/02/14 07:49:36;;;;;;;0.10;0.10;;;;;;;;;;4942323;28;20598;-88
2022/02/14 07:52:02;;;;;;;0.10;0.10;;;;;;;;;;4957558;28;20486;-88
2022/02/14 07:54:28;;;;;;;0.10;0.10;;;;;;;;;;4957216;28;20083;-89
2022/02/14 07:56:54;;;;;;;0.10;0.10;;;;;;;;;;4941346;28;20521;-89
2022/02/14 07:59:20;;;;;;;0.10;0.10;;;;;;;;;;4956305;28;20034;-88
2022/02/14 08:01:45;;;;;;;0.10;0.10;;;;;;;;;;4957233;28;20085;-89
2022/02/14 08:04:12;;;;;;;0.10;0.10;;;;;;;;;;4940943;28;20509;-88
2022/02/14 08:06:38;;;;;;;0.10;0.10;;;;;;;;;;4941325;28;20042;-88
2022/02/14 08:09:06;;;;;;;0.10;0.10;;;;;;;;;;4941778;28;20041;-89
2022/02/14 08:11:32;;;;;;;0.10;0.10;;;;;;;;;;4957153;28;20074;-90
2022/02/14 08:13:58;;;;;;;0.10;0.10;;;;;;;;;;4940794;28;20047;-88
2022/02/14 08:16:24;;;;;;;0.43;0.43;;;;;;;;;;4956812;28;20054;-89
2022/02/14 08:18:50;;;;;;;0.95;0.95;;;;;;;;;;4941062;28;20101;-89
2022/02/14 08:21:16;;;;;;;0.10;0.10;;;;;;;;;;4941172;28;20043;-89
2022/02/14 08:23:42;;;;;;;0.10;0.10;;;;;;;;;;4940724;28;20185;-88
2022/02/14 08:26:08;;;;;;;0.10;0.10;;;;;;;;;;4940781;28;20082;-88
2022/02/14 08:28:34;;;;;;;0.10;0.10;;;;;;;;;;4957256;28;20077;-89
2022/02/14 08:31:01;;;;;;;0.10;0.10;;;;;;;;;;4956914;28;20337;-88
2022/02/14 08:33:27;;;;;;;0.10;0.10;;;;;;;;;;4940768;28;20047;-88
2022/02/14 08:35:53;;;;;;;0.10;0.10;;;;;;;;;;4940915;28;20399;-89
2022/02/14 08:38:19;;;;;;;0.10;0.10;;;;;;;;;;4940688;28;20043;-89
2022/02/14 08:40:45;;;;;;;0.28;0.28;;;;;;;;;;4940873;28;20450;-89
2022/02/14 08:43:11;;;;;;;0.20;0.20;;;;;;;;;;4956421;28;20051;-89
2022/02/14 08:45:37;;;;;;;0.10;0.10;;;;;;;;;;4956792;28;20049;-89
2022/02/14 08:48:03;;;;;;;0.20;0.20;;;;;;;;;;4941179;28;20043;-89
2022/02/14 08:50:29;;;;;;;0.10;0.10;;;;;;;;;;4956482;28;20094;-89
2022/02/14 08:53:03;;;;;;;0.10;0.10;;;;;;;;;;4940218;28;20063;-89
2022/02/14 08:55:29;;;;;;;0.10;0.10;;;;;;;;;;4941028;28;20098;-89
2022/02/14 08:57:55;;;;;;;0.10;0.10;;;;;;;;;;4940362;28;20042;-89
2022/02/14 09:00:21;;;;;;;0.10;0.10;;;;;;;;;;4940648;28;20090;-89
2022/02/14 09:02:47;;;;;;;0.10;0.10;;;;;;;;;;4956360;28;20049;-89
2022/02/14 09:05:14;;;;;;;0.10;0.10;;;;;;;;;;4940503;28;20039;-89
2022/02/14 09:07:40;;;;;;;0.10;0.10;;;;;;;;;;4940564;28;20431;-89
2022/02/14 09:10:06;;;;;;;0.10;0.10;;;;;;;;;;4956219;28;20070;-88
2022/02/14 09:12:32;;;;;;;0.10;0.10;;;;;;;;;;4956021;28;20061;-89
2022/02/14 09:14:58;;;;;;;0.10;0.10;;;;;;;;;;4956354;28;20052;-89
2022/02/14 09:17:25;;;;;;;0.10;0.10;;;;;;;;;;4940168;28;20109;-89
2022/02/14 09:19:51;;;;;;;0.10;0.10;;;;;;;;;;4956175;28;20126;-89
2022/02/14 09:22:17;;;;;;;0.10;0.10;;;;;;;;;;4955903;28;20403;-89
2022/02/14 09:24:43;;;;;;;0.10;0.10;;;;;;;;;;4940194;28;20074;-89
2022/02/14 09:27:10;;;;;;;0.10;0.10;;;;;;;;;;4956358;28;20511;-89
2022/02/14 09:29:36;;;;;;;0.10;0.10;;;;;;;;;;4956517;28;20126;-89
2022/02/14 09:32:03;;;;;;;0.10;0.10;;;;;;;;;;4955891;28;20034;-89
2022/02/14 09:34:28;;;;;;;0.10;0.10;;;;;;;;;;4939789;28;20038;-88
2022/02/14 09:36:56;;;;;;;0.10;0.10;;;;;;;;;;4955766;28;20045;-89
2022/02/14 09:39:22;;;;;;;0.10;0.10;;;;;;;;;;4956089;28;20484;-88
2022/02/14 09:41:48;;;;;;;0.10;0.10;;;;;;;;;;4940094;28;20104;-88
2022/02/14 09:44:14;;;;;;;0.10;0.10;;;;;;;;;;4955911;28;20473;-88
2022/02/14 09:46:40;;;;;;;0.10;0.10;;;;;;;;;;4955830;28;20043;-88
2022/02/14 09:49:06;;;;;;;0.10;0.10;;;;;;;;;;4956111;28;20054;-89
2022/02/14 09:51:34;;;;;;;0.10;0.10;;;;;;;;;;4955720;28;20066;-88
2022/02/14 09:54:00;;;;;;;0.10;0.10;;;;;;;;;;4955813;28;20092;-88
2022/02/14 09:56:29;;;;;;;0.10;0.10;;;;;;;;;;4955662;28;20035;-88
2022/02/14 09:58:55;;;;;;;0.10;0.10;;;;;;;;;;4956182;28;20546;-88
2022/02/14 10:01:21;;;;;;;0.10;0.10;;;;;;;;;;4956231;28;20129;-90
2022/02/14 10:03:56;;;;;;;0.10;0.10;;;;;;;;;;4939615;28;20051;-90
2022/02/14 10:06:32;;;;;;;0.10;0.10;;;;;;;;;;4939625;28;20070;-90
2022/02/14 10:09:09;;;;;;;0.10;0.10;;;;;;;;;;4955681;28;20042;-90
2022/02/14 10:11:36;;;;;;;0.10;0.10;;;;;;;;;;4955770;28;20039;-90
2022/02/14 10:14:18;;;;;;;0.10;0.10;;;;;;;;;;4939945;28;20042;-90
2022/02/14 10:17:00;;;;;;;0.20;0.20;;;;;;;;;;4939770;28;20085;-90
2022/02/14 10:19:26;;;;;;;0.10;0.10;;;;;;;;;;4988069;28;20505;-90
2022/02/14 10:21:52;;;;;;;0.10;0.10;;;;;;;;;;4939617;28;20043;-90
2022/02/14 10:24:18;;;;;;;0.10;0.10;;;;;;;;;;4942708;28;20541;-89
2022/02/14 10:26:48;;;;;;;0.10;0.10;;;;;;;;;;4943214;28;20030;-89
2022/02/14 10:29:15;;;;;;;0.10;0.10;;;;;;;;;;4943428;28;20470;-90
2022/02/14 10:31:45;;;;;;;0.10;0.10;;;;;;;;;;4943425;28;20079;-90
2022/02/14 10:34:12;;;;;;;0.10;0.10;;;;;;;;;;4943382;28;20395;-89
2022/02/14 10:36:38;;;;;;;0.10;0.10;;;;;;;;;;4942985;28;20083;-89
2022/02/14 10:39:08;;;;;;;0.10;0.10;;;;;;;;;;4959066;28;20490;-90
2022/02/14 10:41:34;;;;;;;0.10;0.10;;;;;;;;;;4958700;28;20061;-90
2022/02/14 10:44:04;;;;;;;0.10;0.10;;;;;;;;;;4942775;28;20043;-90
2022/02/14 10:46:31;;;;;;;0.10;0.10;;;;;;;;;;4942796;28;20043;-90
2022/02/14 10:48:58;;;;;;;0.10;0.10;;;;;;;;;;4943046;28;20043;-90
2022/02/14 10:51:24;;;;;;;0.10;0.10;;;;;;;;;;4943009;28;20047;-90
2022/02/14 10:53:51;;;;;;;0.10;0.10;;;;;;;;;;4942487;28;20062;-90
2022/02/14 10:56:18;;;;;;;0.10;0.10;;;;;;;;;;4942729;28;20062;-90
2022/02/14 10:58:44;;;;;;;0.10;0.10;;;;;;;;;;4990827;28;20062;-91
2022/02/14 11:01:14;;;;;;;0.10;0.10;;;;;;;;;;4942860;28;20479;-90
2022/02/14 11:03:40;;;;;;;0.25;0.25;;;;;;;;;;4942650;28;20145;-91
2022/02/14 11:06:06;;;;;;;0.10;0.10;;;;;;;;;;4942642;28;20111;-90
2022/02/14 11:08:36;;;;;;;0.10;0.10;;;;;;;;;;4958320;28;20273;-90
2022/02/14 11:11:02;;;;;;;0.10;0.10;;;;;;;;;;4942413;28;20047;-91
2022/02/14 11:13:30;;;;;;;0.10;0.10;;;;;;;;;;4958446;28;20101;-89
2022/02/14 11:15:56;;;;;;;0.10;0.10;;;;;;;;;;4942676;28;20043;-90
2022/02/14 11:18:26;;;;;;;0.10;0.10;;;;;;;;;;4958654;28;20129;-91
2022/02/14 11:20:52;;;;;;;0.10;0.10;;;;;;;;;;4942394;28;20119;-90
2022/02/14 11:23:18;;;;;;;0.10;0.10;;;;;;;;;;4942015;28;20047;-90
2022/02/14 11:25:54;;;;;;;0.10;0.10;;;;;;;;;;4958243;28;20038;-90
2022/02/14 11:28:23;;;;;;;0.10;0.10;;;;;;;;;;4942476;28;20046;-90
2022/02/14 11:30:49;;;;;;;0.10;0.10;;;;;;;;;;4958010;28;20043;-92
2022/02/14 11:33:20;;;;;;;0.10;0.10;;;;;;;;;;4957823;28;20049;-89
2022/02/14 11:36:02;;;;;;;0.10;0.10;;;;;;;;;;4941524;28;20046;-90
2022/02/14 11:39:00;;;;;;;0.10;0.10;;;;;;;;;;4990139;28;20052;-90
2022/02/14 11:41:30;;;;;;;0.10;0.10;;;;;;;;;;4952996;28;20070;-90
2022/02/14 11:44:14;;;;;;;0.10;0.10;;;;;;;;;;4957752;28;20061;-90
2022/02/14 11:46:42;;;;;;;0.10;0.10;;;;;;;;;;4942017;28;20126;-90
2022/02/14 11:49:11;;;;;;;0.10;0.10;;;;;;;;;;4942294;28;20039;-90
2022/02/14 11:51:37;;;;;;;0.10;0.10;;;;;;;;;;4957837;28;20045;-90
2022/02/14 11:54:06;;;;;;;0.10;0.10;;;;;;;;;;4957377;28;20058;-90
2022/02/14 11:56:32;;;;;;;0.10;0.10;;;;;;;;;;4941933;28;20450;-90
2022/02/14 11:59:05;;;;;;;0.10;0.10;;;;;;;;;;4941506;28;20085;-90
2022/02/14 12:01:33;;;;;;;0.10;0.10;;;;;;;;;;4941679;28;20053;-90
2022/02/14 12:04:18;;;;;;;0.10;0.10;;;;;;;;;;4941530;28;20046;-90
2022/02/14 12:07:02;;;;;;;0.10;0.10;;;;;;;;;;4957675;28;20038;-90
2022/02/14 12:09:28;;;;;;;0.10;0.10;;;;;;;;;;4957347;28;20070;-89
2022/02/14 12:11:54;;;;;;;0.10;0.10;;;;;;;;;;4957408;28;20074;-89
2022/02/14 12:14:21;;;;;;;0.10;0.10;;;;;;;;;;4941361;28;20089;-90
2022/02/14 12:22:46;;;;;;;0.10;0.10;;;;;;;;;;4961952;28;20057;-90
2022/02/14 12:25:12;;;;;;;0.10;0.10;;;;;;;;;;4957505;28;20051;-90
2022/02/14 12:27:38;;;;;;;0.10;0.10;;;;;;;;;;4957014;28;20506;-90
2022/02/14 12:30:20;;;;;;;0.10;0.10;;;;;;;;;;4940832;28;20498;-90
2022/02/14 12:32:49;;;;;;;0.10;0.10;;;;;;;;;;4940861;28;20129;-90
2022/02/14 12:35:32;;;;;;;0.10;0.10;;;;;;;;;;4956989;28;20509;-90
2022/02/14 12:37:58;;;;;;;0.10;0.10;;;;;;;;;;4941060;28;20343;-90
2022/02/14 12:40:24;;;;;;;0.10;0.10;;;;;;;;;;4940854;28;20046;-90
2022/02/14 12:42:51;;;;;;;0.10;0.10;;;;;;;;;;4940557;28;20093;-90
2022/02/14 12:45:18;;;;;;;0.10;0.10;;;;;;;;;;4940792;28;20126;-90
2022/02/14 12:47:44;;;;;;;0.10;0.10;;;;;;;;;;4941344;28;20594;-90
2022/02/14 12:50:17;;;;;;;0.20;0.20;;;;;;;;;;4940800;28;20121;-90
2022/02/14 12:52:43;;;;;;;0.10;0.10;;;;;;;;;;4940839;28;20082;-90
2022/02/14 12:55:09;;;;;;;0.10;0.10;;;;;;;;;;4956397;28;20093;-90
2022/02/14 12:57:38;;;;;;;0.10;0.10;;;;;;;;;;4940900;28;20209;-90
2022/02/14 13:00:25;;;;;;;0.10;0.10;;;;;;;;;;4988422;28;20043;-90
2022/02/14 13:02:53;;;;;;;0.10;0.10;;;;;;;;;;4956247;28;20047;-90
2022/02/14 13:05:20;;;;;;;0.10;0.10;;;;;;;;;;4940346;28;20043;-91
2022/02/14 13:07:46;;;;;;;0.10;0.10;;;;;;;;;;4940311;28;20059;-89
2022/02/14 13:10:14;;;;;;;0.10;0.10;;;;;;;;;;4940539;28;20125;-89
2022/02/14 13:12:40;;;;;;;0.10;0.10;;;;;;;;;;4940847;28;20085;-90
2022/02/14 13:15:06;;;;;;;0.10;0.10;;;;;;;;;;4940247;28;20042;-90
2022/02/14 13:17:32;;;;;;;0.10;0.10;;;;;;;;;;4940218;28;20085;-90
2022/02/14 13:19:59;;;;;;;2.95;0.13;;;;;;;;;;4956223;28;20050;-90
2022/02/14 13:22:34;;;;;;;0.10;0.10;;;;;;;;;;4940211;28;20443;-90
2022/02/14 13:25:00;;;;;;;0.10;0.10;;;;;;;;;;4940839;28;20074;-90
2022/02/14 13:27:26;;;;;;;0.00;0.00;;;;;;;;;;4956231;28;20038;-90
2022/02/14 13:29:52;;;;;;;0.10;0.10;;;;;;;;;;4988153;28;20491;-90
2022/02/14 13:32:19;;;;;;;0.10;0.10;;;;;;;;;;4940048;28;20495;-90
2022/02/14 13:34:49;;;;;;;0.10;0.10;;;;;;;;;;4940099;28;20047;-90
2022/02/14 13:37:15;;;;;;;0.10;0.10;;;;;;;;;;4956548;28;20039;-90
2022/02/14 13:39:41;;;;;;;0.10;0.10;;;;;;;;;;4940404;28;20399;-89
2022/02/14 13:42:09;;;;;;;0.10;0.10;;;;;;;;;;4939793;28;20046;-89
2022/02/14 13:44:36;;;;;;;0.10;0.10;;;;;;;;;;4940686;28;20062;-89
2022/02/14 13:47:15;;;;;;;0.10;0.10;;;;;;;;;;4955860;28;20038;-89
2022/02/14 13:49:41;;;;;;;0.10;0.10;;;;;;;;;;4940043;28;20492;-89
2022/02/14 13:52:07;;;;;;;0.10;0.10;;;;;;;;;;4940297;28;20134;-89
2022/02/14 13:54:33;;;;;;;0.10;0.10;;;;;;;;;;4940758;28;20054;-90
2022/02/14 13:56:59;;;;;;;0.10;0.10;;;;;;;;;;4940874;28;20397;-90
2022/02/14 13:59:28;;;;;;;0.57;0.20;;;;;;;;;;4943948;28;20486;-90
2022/02/14 14:02:08;;;;;;;0.10;0.10;;;;;;;;;;4944259;28;20553;-89
2022/02/14 14:04:34;;;;;;;0.10;0.10;;;;;;;;;;4959726;28;20050;-90
2022/02/14 14:07:06;;;;;;;0.10;0.10;;;;;;;;;;4959746;28;20042;-89
2022/02/14 14:09:39;;;;;;;0.10;0.10;;;;;;;;;;4959520;28;20039;-89
2022/02/14 14:12:05;;;;;;;;;;;;;;;;;;4944037;28;20086;-90
2022/02/14 14:14:32;;;;;;;0.10;0.10;;;;;;;;;;4975514;28;20001;-89
2022/02/14 14:16:59;;;;;;;0.10;0.10;;;;;;;;;;4959504;28;20050;-89
2022/02/14 14:19:25;;;;;;;0.10;0.10;;;;;;;;;;4959242;28;20043;-89
2022/02/14 14:21:51;;;;;;;0.10;0.10;;;;;;;;;;4959183;28;20043;-90
2022/02/14 14:24:20;;;;;;;0.00;0.00;;;;;;;;;;4943264;28;20101;-90
2022/02/14 14:26:46;;;;;;;0.10;0.10;;;;;;;;;;4943238;28;20129;-89
2022/02/14 14:29:13;;;;;;;0.10;0.10;;;;;;;;;;4943736;28;20542;-90
2022/02/14 14:31:39;;;;;;;0.10;0.10;;;;;;;;;;4943355;28;20125;-89
2022/02/14 14:34:05;;;;;;;0.10;0.10;;;;;;;;;;4959214;28;20402;-89
2022/02/14 14:36:31;;;;;;;0.10;0.10;;;;;;;;;;4943249;28;20133;-90
2022/02/14 14:38:57;;;;;;;0.10;0.10;;;;;;;;;;4943431;28;20077;-89
2022/02/14 14:41:23;;;;;;;0.10;0.10;;;;;;;;;;4942863;28;20514;-89
2022/02/14 14:43:51;;;;;;;0.10;0.10;;;;;;;;;;4943011;28;20069;-89
2022/02/14 14:46:17;;;;;;;0.10;0.10;;;;;;;;;;4943147;28;20388;-90
2022/02/14 14:48:43;;;;;;;0.10;0.10;;;;;;;;;;4943351;28;20035;-89